Time;durP1;ratioP1;P1;durP2;ratioP2;P2;SDS_P1;SDS_P2;PMS_P1;PMS_P2;Temp;Humidity;BMP_temperature;BMP_pressure;BME280_temperature;BME280_humidity;BME280_pressure;Samples;Min_cycle;Max_cycle;Signal;HPM_P1;HPM_P2
2023/11/05 00:01:27;;;;;;;15.73;8.50;;;;;;;;;;5010948;28;20266;-87
2023/11/05 00:03:53;;;;;;;18.33;9.00;;;;;;;;;;5010004;28;20105;-86
2023/11/05 00:06:19;;;;;;;19.10;7.10;;;;;;;;;;5011748;28;20042;-87
2023/11/05 00:08:44;;;;;;;13.00;6.00;;;;;;;;;;5010160;28;20060;-87
2023/11/05 00:11:09;;;;;;;12.23;5.70;;;;;;;;;;5011096;28;20275;-86
2023/11/05 00:13:34;;;;;;;11.87;6.30;;;;;;;;;;5010041;28;20295;-87
2023/11/05 00:15:59;;;;;;;15.07;5.45;;;;;;;;;;5011310;28;20787;-87
2023/11/05 00:18:25;;;;;;;14.87;5.53;;;;;;;;;;5015428;28;20044;-86
2023/11/05 00:20:51;;;;;;;14.25;6.00;;;;;;;;;;5015054;28;20267;-87
2023/11/05 00:23:16;;;;;;;12.82;6.57;;;;;;;;;;5013642;28;20377;-87
2023/11/05 00:25:41;;;;;;;15.25;6.32;;;;;;;;;;5013664;28;20009;-86
2023/11/05 00:28:06;;;;;;;19.17;6.57;;;;;;;;;;5014581;28;20361;-87
2023/11/05 00:30:32;;;;;;;12.37;5.60;;;;;;;;;;5015324;28;20029;-87
2023/11/05 00:32:57;;;;;;;15.03;5.60;;;;;;;;;;5015220;28;20313;-87
2023/11/05 00:35:22;;;;;;;9.32;4.63;;;;;;;;;;5015038;28;20306;-87
2023/11/05 00:37:47;;;;;;;11.30;4.38;;;;;;;;;;5015153;28;20448;-87
2023/11/05 00:40:13;;;;;;;16.83;6.20;;;;;;;;;;5014079;28;20088;-86
2023/11/05 00:42:38;;;;;;;11.43;4.88;;;;;;;;;;5015494;28;20583;-87
2023/11/05 00:45:04;;;;;;;10.13;5.03;;;;;;;;;;5015712;28;20026;-87
2023/11/05 00:47:29;;;;;;;11.60;4.80;;;;;;;;;;5013352;28;20279;-87
2023/11/05 00:49:54;;;;;;;13.47;6.00;;;;;;;;;;5015252;28;20018;-87
2023/11/05 00:52:19;;;;;;;15.50;6.25;;;;;;;;;;5015329;28;20251;-86
2023/11/05 00:54:45;;;;;;;17.30;6.43;;;;;;;;;;5014350;28;20499;-87
2023/11/05 00:57:10;;;;;;;12.85;6.63;;;;;;;;;;5012478;28;20686;-87
2023/11/05 00:59:35;;;;;;;15.38;6.65;;;;;;;;;;5013690;28;20034;-87
2023/11/05 01:02:00;;;;;;;14.17;6.13;;;;;;;;;;5014967;28;20047;-87
2023/11/05 01:04:26;;;;;;;25.05;9.15;;;;;;;;;;5014974;28;20329;-87
2023/11/05 01:06:51;;;;;;;15.30;8.33;;;;;;;;;;5015029;28;20464;-87
2023/11/05 01:09:16;;;;;;;26.70;10.90;;;;;;;;;;5014267;28;20753;-87
2023/11/05 01:11:41;;;;;;;31.50;14.15;;;;;;;;;;5014762;28;20024;-87
2023/11/05 01:14:07;;;;;;;38.17;17.90;;;;;;;;;;5014706;28;20117;-87
2023/11/05 01:16:32;;;;;;;39.08;17.10;;;;;;;;;;5015023;28;20022;-87
2023/11/05 01:18:57;;;;;;;41.73;17.30;;;;;;;;;;5013699;28;20476;-87
2023/11/05 01:21:22;;;;;;;35.10;17.73;;;;;;;;;;5014544;28;20736;-87
2023/11/05 01:23:48;;;;;;;29.70;15.68;;;;;;;;;;5014373;28;20263;-87
2023/11/05 01:26:13;;;;;;;35.10;17.50;;;;;;;;;;5012653;28;20500;-87
2023/11/05 01:28:40;;;;;;;29.98;16.35;;;;;;;;;;5013535;28;20028;-87
2023/11/05 01:31:05;;;;;;;27.00;16.85;;;;;;;;;;5014383;28;20022;-87
2023/11/05 01:33:30;;;;;;;30.60;17.27;;;;;;;;;;5014453;28;20030;-87
2023/11/05 01:35:55;;;;;;;24.10;14.15;;;;;;;;;;5013355;28;20053;-87
2023/11/05 01:38:21;;;;;;;26.30;13.97;;;;;;;;;;5014285;28;20026;-87
2023/11/05 01:40:46;;;;;;;19.80;12.97;;;;;;;;;;5014478;28;20259;-87
2023/11/05 01:43:11;;;;;;;17.63;10.17;;;;;;;;;;5013991;28;20294;-87
2023/11/05 01:45:38;;;;;;;14.30;9.45;;;;;;;;;;5012940;28;20266;-86
2023/11/05 01:48:03;;;;;;;15.80;9.13;;;;;;;;;;5013016;28;20104;-87
2023/11/05 01:50:29;;;;;;;10.75;8.02;;;;;;;;;;5012321;28;20112;-87
2023/11/05 01:52:57;;;;;;;12.75;8.40;;;;;;;;;;5012587;28;20460;-87
2023/11/05 01:55:23;;;;;;;13.63;9.40;;;;;;;;;;5013772;28;20039;-87
2023/11/05 01:57:48;;;;;;;14.95;9.60;;;;;;;;;;5013053;28;20357;-87
2023/11/05 02:00:13;;;;;;;13.27;9.35;;;;;;;;;;5013967;28;20120;-86
2023/11/05 02:02:40;;;;;;;12.30;9.55;;;;;;;;;;5013931;28;20160;-87
2023/11/05 02:05:05;;;;;;;13.05;9.50;;;;;;;;;;5013824;28;20026;-86
2023/11/05 02:07:30;;;;;;;14.05;9.10;;;;;;;;;;5011891;28;20022;-86
2023/11/05 02:09:56;;;;;;;12.57;9.80;;;;;;;;;;5019836;28;20017;-87
2023/11/05 02:12:21;;;;;;;15.45;10.85;;;;;;;;;;5033332;28;20748;-86
2023/11/05 02:14:54;;;;;;;13.05;10.05;;;;;;;;;;5033387;28;20096;-87
2023/11/05 02:17:19;;;;;;;14.38;10.80;;;;;;;;;;5018379;28;20116;-87
2023/11/05 02:19:45;;;;;;;12.07;10.48;;;;;;;;;;5013206;28;20114;-87
2023/11/05 02:22:11;;;;;;;14.45;11.35;;;;;;;;;;5013445;28;20464;-87
2023/11/05 02:24:37;;;;;;;14.20;10.25;;;;;;;;;;5013426;28;20029;-87
2023/11/05 02:27:02;;;;;;;15.40;11.27;;;;;;;;;;5011299;28;20010;-86
2023/11/05 02:29:27;;;;;;;13.52;10.40;;;;;;;;;;5013380;28;20377;-86
2023/11/05 02:31:53;;;;;;;14.60;10.88;;;;;;;;;;5013465;28;20040;-86
2023/11/05 02:34:18;;;;;;;15.90;11.70;;;;;;;;;;5013251;28;20075;-86
2023/11/05 02:36:44;;;;;;;18.17;10.97;;;;;;;;;;5012582;28;20028;-87
2023/11/05 02:39:11;;;;;;;15.77;11.30;;;;;;;;;;5012452;28;20302;-87
2023/11/05 02:41:36;;;;;;;17.25;11.48;;;;;;;;;;5013325;28;20018;-86
2023/11/05 02:44:01;;;;;;;16.20;12.07;;;;;;;;;;5013081;28;20028;-87
2023/11/05 02:46:26;;;;;;;17.67;12.18;;;;;;;;;;5012363;28;20260;-87
2023/11/05 02:48:51;;;;;;;18.63;12.37;;;;;;;;;;5012837;28;20217;-87
2023/11/05 02:51:17;;;;;;;15.88;11.68;;;;;;;;;;5012446;28;20359;-87
2023/11/05 02:53:42;;;;;;;16.97;11.93;;;;;;;;;;5012836;28;20026;-87
2023/11/05 02:56:07;;;;;;;17.17;12.52;;;;;;;;;;5010825;28;20276;-87
2023/11/05 02:58:33;;;;;;;18.75;12.75;;;;;;;;;;5012940;28;20357;-86
2023/11/05 03:00:58;;;;;;;18.00;12.02;;;;;;;;;;5012785;28;20029;-87
2023/11/05 03:03:23;;;;;;;16.80;12.03;;;;;;;;;;5012709;28;20018;-87
2023/11/05 03:05:48;;;;;;;21.45;13.13;;;;;;;;;;5011787;28;20283;-87
2023/11/05 03:08:13;;;;;;;16.63;12.30;;;;;;;;;;5012738;28;20057;-87
2023/11/05 03:10:39;;;;;;;16.47;11.40;;;;;;;;;;5012553;28;20372;-87
2023/11/05 03:13:06;;;;;;;17.77;11.65;;;;;;;;;;5012669;28;20752;-86
2023/11/05 03:15:31;;;;;;;17.10;12.20;;;;;;;;;;5011796;28;20021;-86
2023/11/05 03:17:56;;;;;;;17.98;11.40;;;;;;;;;;5010801;28;20551;-86
2023/11/05 03:20:21;;;;;;;16.73;11.30;;;;;;;;;;5011204;28;20029;-87
2023/11/05 03:22:47;;;;;;;16.48;10.40;;;;;;;;;;5012408;28;20297;-86
2023/11/05 03:25:12;;;;;;;15.43;11.18;;;;;;;;;;5011687;28;20056;-87
2023/11/05 03:27:38;;;;;;;13.90;9.52;;;;;;;;;;5012206;28;20468;-86
2023/11/05 03:30:04;;;;;;;12.32;9.63;;;;;;;;;;5011007;28;20050;-86
2023/11/05 03:32:30;;;;;;;12.85;9.23;;;;;;;;;;5010464;28;20030;-87
2023/11/05 03:34:55;;;;;;;11.32;8.60;;;;;;;;;;5012157;28;20033;-87
2023/11/05 03:37:20;;;;;;;12.07;8.57;;;;;;;;;;5011303;28;20028;-86
2023/11/05 03:39:46;;;;;;;12.83;8.37;;;;;;;;;;5011231;28;20140;-86
2023/11/05 03:42:11;;;;;;;11.98;8.48;;;;;;;;;;5011890;28;20338;-87
2023/11/05 03:44:36;;;;;;;12.02;7.80;;;;;;;;;;5012021;28;20022;-86
2023/11/05 03:47:02;;;;;;;12.57;7.97;;;;;;;;;;5010747;28;20448;-86
2023/11/05 03:49:27;;;;;;;8.32;6.68;;;;;;;;;;5010482;28;20279;-87
2023/11/05 03:51:52;;;;;;;9.50;7.03;;;;;;;;;;5012084;28;20026;-87
2023/11/05 03:54:18;;;;;;;7.47;5.90;;;;;;;;;;5010641;28;20022;-86
2023/11/05 03:56:43;;;;;;;7.57;5.73;;;;;;;;;;5011917;28;20017;-87
2023/11/05 03:59:08;;;;;;;9.98;5.97;;;;;;;;;;5010612;28;20298;-87
2023/11/05 04:01:33;;;;;;;8.98;5.60;;;;;;;;;;5011968;28;20068;-87
2023/11/05 04:03:59;;;;;;;7.93;5.50;;;;;;;;;;5010639;28;20026;-87
2023/11/05 04:06:24;;;;;;;6.20;4.97;;;;;;;;;;5011845;28;20022;-87
2023/11/05 04:08:49;;;;;;;7.60;4.75;;;;;;;;;;5011101;28;20406;-87
2023/11/05 04:11:14;;;;;;;6.57;4.60;;;;;;;;;;5011799;28;20018;-87
2023/11/05 04:13:39;;;;;;;6.22;4.68;;;;;;;;;;5011944;28;20235;-87
2023/11/05 04:16:05;;;;;;;6.50;4.43;;;;;;;;;;5011847;28;20046;-87
2023/11/05 04:18:30;;;;;;;6.00;3.85;;;;;;;;;;5011778;28;20025;-87
2023/11/05 04:20:56;;;;;;;5.28;3.92;;;;;;;;;;5010686;28;20034;-87
2023/11/05 04:23:21;;;;;;;6.40;3.90;;;;;;;;;;5011828;28;20022;-87
2023/11/05 04:25:46;;;;;;;6.83;3.67;;;;;;;;;;5011716;28;20226;-87
2023/11/05 04:28:12;;;;;;;6.97;3.70;;;;;;;;;;5011787;28;20291;-87
2023/11/05 04:30:37;;;;;;;6.00;3.47;;;;;;;;;;5009874;28;20041;-87
2023/11/05 04:33:02;;;;;;;7.90;3.60;;;;;;;;;;5010351;28;20673;-87
2023/11/05 04:35:27;;;;;;;3.50;2.72;;;;;;;;;;5011521;28;20252;-87
2023/11/05 04:37:52;;;;;;;7.97;2.73;;;;;;;;;;5011741;28;20460;-86
2023/11/05 04:40:18;;;;;;;4.70;2.05;;;;;;;;;;5010784;28;20267;-86
2023/11/05 04:42:44;;;;;;;2.70;1.43;;;;;;;;;;5011561;28;20468;-87
2023/11/05 04:45:10;;;;;;;3.05;1.38;;;;;;;;;;5011799;28;20620;-87
2023/11/05 04:47:35;;;;;;;3.28;1.35;;;;;;;;;;5011718;28;20484;-87
2023/11/05 04:50:00;;;;;;;3.77;0.90;;;;;;;;;;5009399;28;20050;-87
2023/11/05 04:52:25;;;;;;;3.50;1.08;;;;;;;;;;5011399;28;20350;-87
2023/11/05 04:54:50;;;;;;;1.70;1.10;;;;;;;;;;5010137;28;20030;-87
2023/11/05 04:57:16;;;;;;;3.30;1.17;;;;;;;;;;5011551;28;20264;-87
2023/11/05 04:59:43;;;;;;;1.45;0.70;;;;;;;;;;5010388;28;20430;-87
2023/11/05 05:02:08;;;;;;;3.67;0.88;;;;;;;;;;5014276;28;20014;-86
2023/11/05 05:04:34;;;;;;;2.08;0.85;;;;;;;;;;5014739;28;20048;-87
2023/11/05 05:06:59;;;;;;;3.10;1.00;;;;;;;;;;5014849;28;20265;-86
2023/11/05 05:09:24;;;;;;;3.93;1.00;;;;;;;;;;5014227;28;20461;-87
2023/11/05 05:11:50;;;;;;;2.60;0.83;;;;;;;;;;5014961;28;20255;-86
2023/11/05 05:14:15;;;;;;;2.60;0.70;;;;;;;;;;5014978;28;20263;-87
2023/11/05 05:16:40;;;;;;;2.78;1.20;;;;;;;;;;5014738;28;20040;-86
2023/11/05 05:19:05;;;;;;;2.50;0.67;;;;;;;;;;5013883;28;20033;-87
2023/11/05 05:21:31;;;;;;;2.70;0.70;;;;;;;;;;5014546;28;20261;-87
2023/11/05 05:23:56;;;;;;;2.88;0.70;;;;;;;;;;5014556;28;20026;-87
2023/11/05 05:26:21;;;;;;;1.57;0.73;;;;;;;;;;5014635;28;20014;-87
2023/11/05 05:28:47;;;;;;;0.98;0.60;;;;;;;;;;5013408;28;20264;-87
2023/11/05 05:31:13;;;;;;;2.17;0.75;;;;;;;;;;5012321;28;20032;-87
2023/11/05 05:33:38;;;;;;;4.60;0.70;;;;;;;;;;5014286;28;20022;-87
2023/11/05 05:36:04;;;;;;;1.38;0.70;;;;;;;;;;5014449;28;20026;-87
2023/11/05 05:38:29;;;;;;;1.08;0.40;;;;;;;;;;5013331;28;20304;-87
2023/11/05 05:40:55;;;;;;;1.65;0.40;;;;;;;;;;5012346;28;20284;-87
2023/11/05 05:43:20;;;;;;;1.05;0.47;;;;;;;;;;5012269;28;20029;-86
2023/11/05 05:45:45;;;;;;;1.40;0.50;;;;;;;;;;5014531;28;20045;-88
2023/11/05 05:48:10;;;;;;;0.80;0.47;;;;;;;;;;5014221;28;20346;-87
2023/11/05 05:50:36;;;;;;;1.52;0.60;;;;;;;;;;5013661;28;20022;-87
2023/11/05 05:53:01;;;;;;;2.20;0.30;;;;;;;;;;5014101;28;20029;-87
2023/11/05 05:55:26;;;;;;;1.17;0.50;;;;;;;;;;5013964;28;20593;-87
2023/11/05 05:57:51;;;;;;;1.15;0.40;;;;;;;;;;5013790;28;20068;-87
2023/11/05 06:00:17;;;;;;;0.70;0.37;;;;;;;;;;5013035;28;20034;-88
2023/11/05 06:02:42;;;;;;;1.17;0.50;;;;;;;;;;5012670;28;20251;-87
2023/11/05 06:05:08;;;;;;;0.40;0.20;;;;;;;;;;5014063;28;20468;-88
2023/11/05 06:07:35;;;;;;;1.00;0.38;;;;;;;;;;5013879;28;20014;-87
2023/11/05 06:10:02;;;;;;;3.67;0.63;;;;;;;;;;5011369;28;20022;-87
2023/11/05 06:12:27;;;;;;;1.52;0.40;;;;;;;;;;5013159;28;20101;-88
2023/11/05 06:14:53;;;;;;;2.13;0.40;;;;;;;;;;5012475;28;20056;-89
2023/11/05 06:17:19;;;;;;;1.00;0.55;;;;;;;;;;5012780;28;20428;-89
2023/11/05 06:19:44;;;;;;;1.35;0.50;;;;;;;;;;5012699;28;20034;-89
2023/11/05 06:22:10;;;;;;;2.08;0.60;;;;;;;;;;5013628;28;20030;-89
2023/11/05 06:24:38;;;;;;;2.10;0.60;;;;;;;;;;5013765;28;20500;-89
2023/11/05 06:27:03;;;;;;;2.20;0.60;;;;;;;;;;5013603;28;20022;-88
2023/11/05 06:29:28;;;;;;;1.00;0.60;;;;;;;;;;5012415;28;20029;-88
2023/11/05 06:31:53;;;;;;;1.25;0.30;;;;;;;;;;5012107;28;20267;-90
2023/11/05 06:34:18;;;;;;;2.00;0.90;;;;;;;;;;5012062;28;20517;-89
2023/11/05 06:36:56;;;;;;;1.17;0.43;;;;;;;;;;5013501;28;20330;-89
2023/11/05 06:39:22;;;;;;;1.13;0.65;;;;;;;;;;5013333;28;20295;-89
2023/11/05 06:41:47;;;;;;;0.95;0.40;;;;;;;;;;5012619;28;20030;-88
2023/11/05 06:44:12;;;;;;;2.58;0.60;;;;;;;;;;5013166;28;20468;-89
2023/11/05 06:46:37;;;;;;;1.67;0.50;;;;;;;;;;5013188;28;20388;-90
2023/11/05 06:49:03;;;;;;;3.03;0.90;;;;;;;;;;5013187;28;20024;-89
2023/11/05 06:51:28;;;;;;;2.83;0.40;;;;;;;;;;5012150;28;20271;-88
2023/11/05 06:53:53;;;;;;;4.93;0.82;;;;;;;;;;5013116;28;20040;-89
2023/11/05 06:56:18;;;;;;;5.73;0.70;;;;;;;;;;5013109;28;20105;-88
2023/11/05 06:58:44;;;;;;;2.63;0.80;;;;;;;;;;5013049;28;20398;-89
2023/11/05 07:01:09;;;;;;;1.45;0.57;;;;;;;;;;5011612;28;20637;-89
2023/11/05 07:03:35;;;;;;;4.43;0.65;;;;;;;;;;5012978;28;20100;-89
2023/11/05 07:06:01;;;;;;;2.55;0.80;;;;;;;;;;5011152;28;20022;-89
2023/11/05 07:08:28;;;;;;;3.17;1.25;;;;;;;;;;5021413;28;20506;-88
2023/11/05 07:10:54;;;;;;;3.17;0.88;;;;;;;;;;5023938;28;20053;-88
2023/11/05 07:13:19;;;;;;;1.57;0.60;;;;;;;;;;5012740;28;20049;-87
2023/11/05 07:15:44;;;;;;;2.13;0.80;;;;;;;;;;5012884;28;20286;-89
2023/11/05 07:18:09;;;;;;;2.23;0.80;;;;;;;;;;5012399;28;20283;-88
2023/11/05 07:20:36;;;;;;;3.47;0.90;;;;;;;;;;5009803;28;20362;-88
2023/11/05 07:23:03;;;;;;;5.25;1.13;;;;;;;;;;5012434;28;20485;-88
2023/11/05 07:25:29;;;;;;;3.50;1.60;;;;;;;;;;5011654;28;20400;-89
2023/11/05 07:27:54;;;;;;;3.40;1.27;;;;;;;;;;5012480;28;20014;-88
2023/11/05 07:30:19;;;;;;;3.20;2.00;;;;;;;;;;5010013;28;20807;-88
2023/11/05 07:32:46;;;;;;;5.37;1.67;;;;;;;;;;5011956;28;20014;-87
2023/11/05 07:35:11;;;;;;;3.50;1.58;;;;;;;;;;5012258;28;20784;-88
2023/11/05 07:37:36;;;;;;;4.27;1.03;;;;;;;;;;5010701;28;20061;-88
2023/11/05 07:40:02;;;;;;;6.83;1.40;;;;;;;;;;5011669;28;20386;-87
2023/11/05 07:42:28;;;;;;;5.57;1.20;;;;;;;;;;5011830;28;20347;-88
2023/11/05 07:44:53;;;;;;;4.35;1.02;;;;;;;;;;5007905;28;20105;-88
2023/11/05 07:47:18;;;;;;;4.22;1.38;;;;;;;;;;5011296;28;20357;-88
2023/11/05 07:49:43;;;;;;;7.57;1.05;;;;;;;;;;5012179;28;20045;-88
2023/11/05 07:52:09;;;;;;;3.83;1.80;;;;;;;;;;5010616;28;20029;-89
2023/11/05 07:54:34;;;;;;;3.95;0.93;;;;;;;;;;5011913;28;20018;-88
2023/11/05 07:56:59;;;;;;;2.13;0.73;;;;;;;;;;5011838;28;20091;-88
2023/11/05 07:59:25;;;;;;;5.55;0.65;;;;;;;;;;5011807;28;20287;-89
2023/11/05 08:01:50;;;;;;;4.55;0.82;;;;;;;;;;5009778;28;20049;-88
2023/11/05 08:04:16;;;;;;;4.53;0.83;;;;;;;;;;5011769;28;20400;-90
2023/11/05 08:06:43;;;;;;;4.15;0.82;;;;;;;;;;5009738;28;20754;-89
2023/11/05 08:09:08;;;;;;;4.78;1.10;;;;;;;;;;5011823;28;20034;-89
2023/11/05 08:11:33;;;;;;;2.35;0.70;;;;;;;;;;5009747;28;20022;-90
2023/11/05 08:14:00;;;;;;;2.85;0.82;;;;;;;;;;5010810;28;20366;-90
2023/11/05 08:16:25;;;;;;;4.15;0.80;;;;;;;;;;5010711;28;20021;-89
2023/11/05 08:18:50;;;;;;;2.13;0.70;;;;;;;;;;5010635;28;20037;-91
2023/11/05 08:21:17;;;;;;;2.97;0.93;;;;;;;;;;5009680;28;20022;-90
2023/11/05 08:23:43;;;;;;;3.08;0.82;;;;;;;;;;5010546;28;20270;-89
2023/11/05 08:26:08;;;;;;;5.17;0.87;;;;;;;;;;5004898;28;20018;-91
2023/11/05 08:28:33;;;;;;;3.13;0.88;;;;;;;;;;5010227;28;20256;-89
2023/11/05 08:30:58;;;;;;;10.25;2.90;;;;;;;;;;5011523;28;20383;-89
2023/11/05 08:33:24;;;;;;;4.63;1.03;;;;;;;;;;4999791;28;20469;-91
2023/11/05 08:35:51;;;;;;;4.40;1.42;;;;;;;;;;4996782;28;20282;-89
2023/11/05 08:38:16;;;;;;;6.57;1.42;;;;;;;;;;5008338;28;20056;-90
2023/11/05 08:40:42;;;;;;;5.50;1.20;;;;;;;;;;5015614;28;20053;-90
2023/11/05 08:43:07;;;;;;;6.60;1.27;;;;;;;;;;5015277;28;20029;-89
2023/11/05 08:45:32;;;;;;;4.57;1.40;;;;;;;;;;5014479;28;20021;-89
2023/11/05 08:47:58;;;;;;;4.97;1.30;;;;;;;;;;5014353;28;20022;-89
2023/11/05 08:50:25;;;;;;;10.83;2.00;;;;;;;;;;5014198;28;20022;-91
2023/11/05 08:52:51;;;;;;;8.15;1.90;;;;;;;;;;5014851;28;20243;-90
2023/11/05 08:55:16;;;;;;;7.70;1.55;;;;;;;;;;5011858;28;20139;-91
2023/11/05 08:57:41;;;;;;;5.50;1.65;;;;;;;;;;5013044;28;20030;-90
2023/11/05 09:00:11;;;;;;;5.33;2.30;;;;;;;;;;5006827;28;20128;-89
2023/11/05 09:02:36;;;;;;;5.80;1.50;;;;;;;;;;4999539;28;20263;-90
2023/11/05 09:05:02;;;;;;;7.55;1.80;;;;;;;;;;5002506;28;20120;-91
2023/11/05 09:07:27;;;;;;;4.38;1.70;;;;;;;;;;5014870;28;20014;-90
2023/11/05 09:09:52;;;;;;;4.93;1.50;;;;;;;;;;5015205;28;20097;-90
2023/11/05 09:12:17;;;;;;;8.73;4.53;;;;;;;;;;5015135;28;20459;-90
2023/11/05 09:14:43;;;;;;;7.40;1.85;;;;;;;;;;5012860;28;20318;-91
2023/11/05 09:17:08;;;;;;;7.55;1.90;;;;;;;;;;5010796;28;20464;-90
2023/11/05 09:19:34;;;;;;;3.10;1.40;;;;;;;;;;5005738;28;20423;-90
2023/11/05 09:21:59;;;;;;;5.40;1.90;;;;;;;;;;5010616;28;20106;-89
2023/11/05 09:24:27;;;;;;;6.78;1.45;;;;;;;;;;5005131;28;20089;-90
2023/11/05 09:26:53;;;;;;;5.32;2.03;;;;;;;;;;5009992;28;20034;-91
2023/11/05 09:29:18;;;;;;;10.45;1.67;;;;;;;;;;5005882;28;20049;-90
2023/11/05 09:31:43;;;;;;;6.83;1.80;;;;;;;;;;5009134;28;20076;-90
2023/11/05 09:34:08;;;;;;;5.33;1.20;;;;;;;;;;5011338;28;20282;-91
2023/11/05 09:36:34;;;;;;;8.63;1.95;;;;;;;;;;5011590;28;20263;-92
2023/11/05 09:38:59;;;;;;;9.00;1.23;;;;;;;;;;5014219;28;20034;-91
2023/11/05 09:41:25;;;;;;;7.18;1.30;;;;;;;;;;5013969;28;20109;-92
2023/11/05 09:43:50;;;;;;;7.03;1.38;;;;;;;;;;5013032;28;20029;-90
2023/11/05 09:46:15;;;;;;;3.33;0.95;;;;;;;;;;5014010;28;20092;-92
2023/11/05 09:48:41;;;;;;;6.13;1.08;;;;;;;;;;5012900;28;20022;-90
2023/11/05 09:51:08;;;;;;;3.88;1.00;;;;;;;;;;5013391;28;20460;-89
2023/11/05 09:53:34;;;;;;;9.90;1.23;;;;;;;;;;5013199;28;20014;-90
2023/11/05 09:55:59;;;;;;;4.00;0.80;;;;;;;;;;4999685;28;20036;-89
2023/11/05 09:58:25;;;;;;;3.15;1.05;;;;;;;;;;5013760;28;20109;-89
2023/11/05 10:00:51;;;;;;;3.72;1.20;;;;;;;;;;5012317;28;20030;-90
2023/11/05 10:03:17;;;;;;;4.65;1.17;;;;;;;;;;5012981;28;20480;-89
2023/11/05 10:05:43;;;;;;;2.75;0.80;;;;;;;;;;5012757;28;20101;-89
2023/11/05 10:08:09;;;;;;;3.47;0.88;;;;;;;;;;5013684;28;20018;-88
2023/11/05 10:10:36;;;;;;;4.05;0.90;;;;;;;;;;5013222;28;20518;-88
2023/11/05 10:13:01;;;;;;;3.80;1.08;;;;;;;;;;5013239;28;20392;-88
2023/11/05 10:15:27;;;;;;;4.55;1.00;;;;;;;;;;5010803;28;20026;-88
2023/11/05 10:17:53;;;;;;;4.45;1.40;;;;;;;;;;5010878;28;20025;-89
2023/11/05 10:20:18;;;;;;;7.85;1.60;;;;;;;;;;5010998;28;20116;-91
2023/11/05 10:22:44;;;;;;;8.55;1.20;;;;;;;;;;5012424;28;20104;-90
2023/11/05 10:25:23;;;;;;;4.38;1.20;;;;;;;;;;5013456;28;20026;-90
2023/11/05 10:27:48;;;;;;;10.13;1.95;;;;;;;;;;5013223;28;20014;-90
2023/11/05 10:30:15;;;;;;;4.53;1.13;;;;;;;;;;5013413;28;20092;-91
2023/11/05 10:32:41;;;;;;;7.15;1.40;;;;;;;;;;5009589;28;20022;-90
2023/11/05 10:35:08;;;;;;;9.50;1.65;;;;;;;;;;5012428;28;20116;-91
2023/11/05 10:37:33;;;;;;;10.38;2.15;;;;;;;;;;5012856;28;20026;-92
2023/11/05 10:40:00;;;;;;;11.23;1.60;;;;;;;;;;4999824;28;20443;-91
2023/11/05 10:42:26;;;;;;;12.60;1.45;;;;;;;;;;4999105;28;20136;-90
2023/11/05 10:44:52;;;;;;;5.55;2.00;;;;;;;;;;5011695;28;20532;-91
2023/11/05 10:47:18;;;;;;;6.43;1.02;;;;;;;;;;5011487;28;20072;-90
2023/11/05 10:49:43;;;;;;;4.28;1.13;;;;;;;;;;5008499;28;20025;-92
2023/11/05 10:52:10;;;;;;;9.63;1.40;;;;;;;;;;5010593;28;20096;-91
2023/11/05 10:54:39;;;;;;;9.18;1.88;;;;;;;;;;5011454;28;20048;-91
2023/11/05 10:57:24;;;;;;;6.72;1.10;;;;;;;;;;5012182;28;20553;-90
2023/11/05 10:59:49;;;;;;;3.90;0.80;;;;;;;;;;5000795;28;20046;-91
2023/11/05 11:02:15;;;;;;;7.00;0.90;;;;;;;;;;5011203;28;20033;-91
2023/11/05 11:04:40;;;;;;;10.50;1.00;;;;;;;;;;5011310;28;20282;-91
2023/11/05 11:07:05;;;;;;;3.73;1.10;;;;;;;;;;5012209;28;20259;-92
2023/11/05 11:09:32;;;;;;;5.32;1.10;;;;;;;;;;5012237;28;20260;-90
2023/11/05 11:12:17;;;;;;;4.57;1.00;;;;;;;;;;5010408;28;20034;-90
2023/11/05 11:14:43;;;;;;;2.17;0.52;;;;;;;;;;5011820;28;20022;-90
2023/11/05 11:17:13;;;;;;;3.83;0.73;;;;;;;;;;5011886;28;20521;-90
2023/11/05 11:19:38;;;;;;;7.00;1.00;;;;;;;;;;5011360;28;20291;-90
2023/11/05 11:22:05;;;;;;;6.30;0.73;;;;;;;;;;5008724;28;20025;-91
2023/11/05 11:24:33;;;;;;;7.15;1.52;;;;;;;;;;5011592;28;20038;-92
2023/11/05 11:27:04;;;;;;;3.97;0.82;;;;;;;;;;5010536;28;20029;-91
2023/11/05 11:29:31;;;;;;;4.82;1.15;;;;;;;;;;5009317;28;20037;-91
2023/11/05 11:31:56;;;;;;;4.75;1.13;;;;;;;;;;5012728;28;20414;-89
2023/11/05 11:34:22;;;;;;;11.05;1.17;;;;;;;;;;5010729;28;20022;-90
2023/11/05 11:36:57;;;;;;;6.38;0.82;;;;;;;;;;5007080;28;20018;-90
2023/11/05 11:39:22;;;;;;;5.68;1.15;;;;;;;;;;5010264;28;20025;-90
2023/11/05 11:41:48;;;;;;;8.00;1.08;;;;;;;;;;5010485;28;20431;-90
2023/11/05 11:44:13;;;;;;;2.50;0.80;;;;;;;;;;5011402;28;20113;-90
2023/11/05 11:46:38;;;;;;;6.50;1.30;;;;;;;;;;5011747;28;20100;-91
2023/11/05 11:49:12;;;;;;;5.00;0.90;;;;;;;;;;5010261;28;20321;-90
2023/11/05 11:51:37;;;;;;;8.40;1.35;;;;;;;;;;5007658;28;20251;-90
2023/11/05 11:54:02;;;;;;;4.45;0.95;;;;;;;;;;5011787;28;20036;-91
2023/11/05 11:56:28;;;;;;;11.50;2.70;;;;;;;;;;4999475;28;20030;-91
2023/11/05 11:58:53;;;;;;;8.77;1.40;;;;;;;;;;4992264;28;20280;-90
2023/11/05 12:01:18;;;;;;;6.30;1.30;;;;;;;;;;4992421;28;20023;-91
2023/11/05 12:03:44;;;;;;;5.20;0.80;;;;;;;;;;4991766;28;20097;-90
2023/11/05 12:06:10;;;;;;;7.75;1.23;;;;;;;;;;4992388;28;20094;-91
2023/11/05 12:08:45;;;;;;;7.93;1.52;;;;;;;;;;5019038;28;20175;-91
2023/11/05 12:11:11;;;;;;;8.73;1.50;;;;;;;;;;4999785;28;20422;-90
2023/11/05 12:13:41;;;;;;;7.90;1.20;;;;;;;;;;5012034;28;20038;-91
2023/11/05 12:16:08;;;;;;;9.57;2.00;;;;;;;;;;5013996;28;20560;-91
2023/11/05 12:18:34;;;;;;;6.75;0.85;;;;;;;;;;5012317;28;20411;-89
2023/11/05 12:21:00;;;;;;;4.80;1.65;;;;;;;;;;5014981;28;20022;-91
2023/11/05 12:23:26;;;;;;;3.97;0.70;;;;;;;;;;5015356;28;20113;-89
2023/11/05 12:26:00;;;;;;;6.45;1.00;;;;;;;;;;5015548;28;20145;-90
2023/11/05 12:28:29;;;;;;;5.65;0.93;;;;;;;;;;5011906;28;20388;-92
2023/11/05 12:30:57;;;;;;;12.07;1.25;;;;;;;;;;5013710;28;20104;-92
2023/11/05 12:33:23;;;;;;;11.95;1.40;;;;;;;;;;5016012;28;20018;-95
2023/11/05 12:35:50;;;;;;;12.50;1.08;;;;;;;;;;5014704;28;20022;-93
2023/11/05 12:38:15;;;;;;;5.38;1.25;;;;;;;;;;5015367;28;20037;-92
2023/11/05 12:40:40;;;;;;;6.63;0.90;;;;;;;;;;5016351;28;20025;-96
2023/11/05 12:43:06;;;;;;;8.40;1.27;;;;;;;;;;5014525;28;20022;-94
2023/11/05 12:45:31;;;;;;;7.75;1.20;;;;;;;;;;5016109;28;20427;-93
2023/11/05 12:47:56;;;;;;;7.95;1.40;;;;;;;;;;5013826;28;20026;-93
2023/11/05 12:50:23;;;;;;;8.65;1.58;;;;;;;;;;5013170;28;20014;-92
2023/11/05 12:52:48;;;;;;;14.63;1.63;;;;;;;;;;5009328;28;20053;-92
2023/11/05 12:55:13;;;;;;;7.87;1.33;;;;;;;;;;5012890;28;20049;-91
2023/11/05 12:57:38;;;;;;;9.50;1.50;;;;;;;;;;5012888;28;20340;-91
2023/11/05 13:00:05;;;;;;;8.97;1.33;;;;;;;;;;5012736;28;20026;-90
2023/11/05 13:02:30;;;;;;;7.88;0.82;;;;;;;;;;5011452;28;20321;-90
2023/11/05 13:04:55;;;;;;;10.43;1.40;;;;;;;;;;5013691;28;20018;-90
2023/11/05 13:07:22;;;;;;;4.38;0.60;;;;;;;;;;5013822;28;20646;-89
2023/11/05 13:09:47;;;;;;;7.82;1.70;;;;;;;;;;5012934;28;20109;-89
2023/11/05 13:12:12;;;;;;;20.23;1.30;;;;;;;;;;5013353;28;20022;-89
2023/11/05 13:14:37;;;;;;;7.23;1.20;;;;;;;;;;5014860;28;20260;-89
2023/11/05 13:17:03;;;;;;;4.67;1.30;;;;;;;;;;5014733;28;20247;-89
2023/11/05 13:19:29;;;;;;;8.57;1.60;;;;;;;;;;5013430;28;20785;-89
2023/11/05 13:21:54;;;;;;;8.52;1.40;;;;;;;;;;5013352;28;20101;-90
2023/11/05 13:24:19;;;;;;;13.07;1.30;;;;;;;;;;5012658;28;20044;-89
2023/11/05 13:26:45;;;;;;;10.60;2.87;;;;;;;;;;5013918;28;20022;-90
2023/11/05 13:29:10;;;;;;;8.88;3.28;;;;;;;;;;5014813;28;20397;-90
2023/11/05 13:31:36;;;;;;;6.53;1.52;;;;;;;;;;5012888;28;20396;-90
2023/11/05 13:34:01;;;;;;;7.00;1.83;;;;;;;;;;5014563;28;20026;-90
2023/11/05 13:36:26;;;;;;;6.07;1.50;;;;;;;;;;5014442;28;20029;-90
2023/11/05 13:38:52;;;;;;;8.48;1.58;;;;;;;;;;5014312;28;20583;-90
2023/11/05 13:41:17;;;;;;;16.13;4.55;;;;;;;;;;5013568;28;20017;-89
2023/11/05 13:43:42;;;;;;;9.20;1.80;;;;;;;;;;5014502;28;20453;-89
2023/11/05 13:46:08;;;;;;;5.23;1.30;;;;;;;;;;5014521;28;20263;-89
2023/11/05 13:48:33;;;;;;;6.90;0.93;;;;;;;;;;5014395;28;20260;-90
2023/11/05 13:50:59;;;;;;;4.22;0.82;;;;;;;;;;5013114;28;20029;-90
2023/11/05 13:53:24;;;;;;;8.85;2.22;;;;;;;;;;5014175;28;20053;-89
2023/11/05 13:55:52;;;;;;;6.20;1.40;;;;;;;;;;5014045;28;20415;-90
2023/11/05 13:58:19;;;;;;;20.52;7.40;;;;;;;;;;5014156;28;20305;-89
2023/11/05 14:00:47;;;;;;;8.38;1.23;;;;;;;;;;5012280;28;20037;-89
2023/11/05 14:03:12;;;;;;;11.70;2.13;;;;;;;;;;5014287;28;20042;-90
2023/11/05 14:05:38;;;;;;;13.15;2.78;;;;;;;;;;5012771;28;20458;-90
2023/11/05 14:08:04;;;;;;;10.18;1.38;;;;;;;;;;5013942;28;20022;-90
2023/11/05 14:10:30;;;;;;;5.28;0.90;;;;;;;;;;5013053;28;20014;-90
2023/11/05 14:12:56;;;;;;;8.75;2.08;;;;;;;;;;5013701;28;20147;-90
2023/11/05 14:15:21;;;;;;;6.00;1.00;;;;;;;;;;5013937;28;20045;-89
2023/11/05 14:17:47;;;;;;;4.28;0.60;;;;;;;;;;5013775;28;20073;-89
2023/11/05 14:20:12;;;;;;;5.50;1.17;;;;;;;;;;5012897;28;20050;-89
2023/11/05 14:22:37;;;;;;;8.10;1.05;;;;;;;;;;5013515;28;20056;-89
2023/11/05 14:25:03;;;;;;;5.25;1.05;;;;;;;;;;5013468;28;20476;-90
2023/11/05 14:27:28;;;;;;;5.88;0.85;;;;;;;;;;5013396;28;20100;-89
2023/11/05 14:29:56;;;;;;;7.87;1.10;;;;;;;;;;5013595;28;20388;-89